createdAt,value
2022-09-12T00:01:25.670Z,7.13
2022-09-12T00:03:58.061Z,7.43
2022-09-12T00:06:26.353Z,6.68
2022-09-12T00:08:59.017Z,7.03
2022-09-12T00:11:26.554Z,5.88
2022-09-12T00:13:57.532Z,6.50
2022-09-12T00:16:27.251Z,6.65
2022-09-12T00:18:53.905Z,7.07
2022-09-12T00:21:21.419Z,7.47
2022-09-12T00:23:48.235Z,7.97
2022-09-12T00:26:15.687Z,7.43
2022-09-12T00:28:42.287Z,7.43
2022-09-12T00:31:12.143Z,5.35
2022-09-12T00:33:39.097Z,5.00
2022-09-12T00:36:15.425Z,7.82
2022-09-12T00:38:44.042Z,6.13
2022-09-12T00:41:16.302Z,6.25
2022-09-12T00:43:48.986Z,4.85
2022-09-12T00:46:18.534Z,6.72
2022-09-12T00:48:52.199Z,6.75
2022-09-12T00:51:19.521Z,5.95
2022-09-12T00:53:48.216Z,6.78
2022-09-12T00:56:17.704Z,7.15
2022-09-12T00:59:05.616Z,6.82
2022-09-12T01:01:32.897Z,7.90
2022-09-12T01:04:00.523Z,6.68
2022-09-12T01:06:32.295Z,7.00
2022-09-12T01:09:03.506Z,5.10
2022-09-12T01:11:34.272Z,5.03
2022-09-12T01:14:00.980Z,6.53
2022-09-12T01:16:27.632Z,4.32
2022-09-12T01:19:18.830Z,7.07
2022-09-12T01:21:56.768Z,6.47
2022-09-12T01:24:55.945Z,7.32
2022-09-12T01:27:41.334Z,6.57
2022-09-12T01:30:38.521Z,5.13
2022-09-12T01:33:16.505Z,5.82
2022-09-12T01:35:52.231Z,6.38
2022-09-12T01:38:36.199Z,6.95
2022-09-12T01:41:27.265Z,6.35
2022-09-12T01:44:12.867Z,6.40
2022-09-12T01:46:54.522Z,6.72
2022-09-12T01:49:29.554Z,6.88
2022-09-12T01:52:08.973Z,8.25
2022-09-12T01:54:45.278Z,7.63
2022-09-12T01:57:19.416Z,7.35
2022-09-12T01:59:51.439Z,6.88
2022-09-12T02:02:30.268Z,5.05
2022-09-12T02:05:13.563Z,6.07
2022-09-12T02:07:46.827Z,7.03
2022-09-12T02:10:21.544Z,7.07
2022-09-12T02:12:54.925Z,6.95
2022-09-12T02:15:30.011Z,7.97
2022-09-12T02:18:01.431Z,6.32
2022-09-12T02:20:47.528Z,6.43
2022-09-12T02:23:22.449Z,7.18
2022-09-12T02:25:53.733Z,6.03
2022-09-12T02:28:27.616Z,5.95
2022-09-12T02:31:22.281Z,6.15
2022-09-12T02:33:53.181Z,8.10
2022-09-12T02:36:28.664Z,6.88
2022-09-12T02:38:55.496Z,7.57
2022-09-12T02:41:22.766Z,6.82
2022-09-12T02:43:51.504Z,6.57
2022-09-12T02:46:26.382Z,6.38
2022-09-12T02:48:54.271Z,6.28
2022-09-12T02:51:23.732Z,6.40
2022-09-12T02:53:50.945Z,4.80
2022-09-12T02:56:23.532Z,5.30
2022-09-12T02:58:50.354Z,6.32
2022-09-12T03:01:35.901Z,6.68
2022-09-12T03:04:32.480Z,7.35
2022-09-12T03:07:26.633Z,6.50
2022-09-12T03:09:58.021Z,6.78
2022-09-12T03:12:34.029Z,7.60
2022-09-12T03:15:10.759Z,6.80
2022-09-12T03:18:01.664Z,5.88
2022-09-12T03:20:47.607Z,6.25
2022-09-12T03:25:59.022Z,6.13
2022-09-12T03:28:26.739Z,5.65
2022-09-12T03:30:55.751Z,4.97
2022-09-12T03:33:23.940Z,4.68
2022-09-12T03:35:51.483Z,5.88
2022-09-12T03:38:18.918Z,6.72
2022-09-12T03:40:47.786Z,5.80
2022-09-12T03:43:16.094Z,5.60
2022-09-12T03:45:42.716Z,4.10
2022-09-12T03:48:09.331Z,6.30
2022-09-12T03:50:36.098Z,5.25
2022-09-12T03:53:03.791Z,6.35
2022-09-12T03:55:31.009Z,5.55
2022-09-12T03:57:57.651Z,6.32
2022-09-12T04:00:24.609Z,4.40
2022-09-12T04:02:56.865Z,3.70
2022-09-12T04:05:24.423Z,4.93
2022-09-12T04:07:51.546Z,4.55
2022-09-12T04:10:18.254Z,5.80
2022-09-12T04:12:45.252Z,5.82
2022-09-12T04:15:11.918Z,5.60
2022-09-12T04:17:38.488Z,4.10
2022-09-12T04:20:05.615Z,4.00
2022-09-12T04:22:33.193Z,3.88
2022-09-12T04:24:59.802Z,6.18
2022-09-12T04:27:26.461Z,5.97
2022-09-12T04:29:54.736Z,5.90
2022-09-12T04:32:22.308Z,6.03
2022-09-12T04:34:49.334Z,5.95
2022-09-12T04:37:16.864Z,6.13
2022-09-12T04:39:43.681Z,5.88
2022-09-12T04:42:10.356Z,5.55
2022-09-12T04:44:37.471Z,5.78
2022-09-12T04:47:04.136Z,5.25
2022-09-12T04:49:30.775Z,5.43
2022-09-12T04:51:57.349Z,5.50
2022-09-12T04:54:23.957Z,5.35
2022-09-12T04:56:52.443Z,5.55
2022-09-12T04:59:20.435Z,5.40
2022-09-12T05:01:48.286Z,5.35
2022-09-12T05:04:15.560Z,5.82
2022-09-12T05:06:42.900Z,5.82
2022-09-12T05:09:12.629Z,4.43
2022-09-12T05:12:03.336Z,5.18
2022-09-12T05:14:27.585Z,5.20
2022-09-12T05:16:54.200Z,6.00
2022-09-12T05:19:20.840Z,5.47
2022-09-12T05:21:47.320Z,5.40
2022-09-12T05:24:13.928Z,5.07
2022-09-12T05:26:40.424Z,5.68
2022-09-12T05:29:07.266Z,5.35
2022-09-12T05:31:34.715Z,5.55
2022-09-12T05:34:01.587Z,5.00
2022-09-12T05:36:31.322Z,5.20
2022-09-12T05:39:00.000Z,5.90
2022-09-12T05:41:30.636Z,5.40
2022-09-12T05:43:59.232Z,5.47
2022-09-12T05:46:28.327Z,5.00
2022-09-12T05:48:56.830Z,4.85
2022-09-12T05:51:28.566Z,4.65
2022-09-12T05:53:57.791Z,6.07
2022-09-12T05:56:29.680Z,5.43
2022-09-12T05:58:59.943Z,5.28
2022-09-12T06:01:27.838Z,4.93
2022-09-12T06:03:56.559Z,4.97
2022-09-12T06:06:24.948Z,4.32
2022-09-12T06:08:55.862Z,4.32
2022-09-12T06:11:25.972Z,5.28
2022-09-12T06:13:53.154Z,4.78
2022-09-12T06:16:23.260Z,6.00
2022-09-12T06:18:53.195Z,5.72
2022-09-12T06:21:21.746Z,5.03
2022-09-12T06:23:49.076Z,5.38
2022-09-12T06:26:18.358Z,6.32
2022-09-12T06:28:45.078Z,4.93
2022-09-12T06:31:20.456Z,5.20
2022-09-12T06:33:49.348Z,4.95
2022-09-12T06:36:39.983Z,5.22
2022-09-12T06:39:18.291Z,5.13
2022-09-12T06:41:45.576Z,5.43
2022-09-12T06:44:15.875Z,5.13
2022-09-12T06:46:42.549Z,4.30
2022-09-12T06:49:09.076Z,4.80
2022-09-12T06:51:38.174Z,4.88
2022-09-12T06:54:05.332Z,4.72
2022-09-12T06:56:32.085Z,5.55
2022-09-12T06:58:59.332Z,5.18
2022-09-12T07:01:28.764Z,4.10
2022-09-12T07:03:59.197Z,5.40
2022-09-12T07:06:32.046Z,4.90
2022-09-12T07:09:00.867Z,4.95
2022-09-12T07:11:33.454Z,4.65
2022-09-12T07:14:02.629Z,4.85
2022-09-12T07:16:30.407Z,4.80
2022-09-12T07:19:03.325Z,5.15
2022-09-12T07:21:30.642Z,5.55
2022-09-12T07:23:58.159Z,4.57
2022-09-12T07:26:27.551Z,5.00
2022-09-12T07:29:07.930Z,4.93
2022-09-12T07:31:42.521Z,5.05
2022-09-12T07:34:09.188Z,4.43
2022-09-12T07:36:36.136Z,4.68
2022-09-12T07:39:03.031Z,4.00
2022-09-12T07:41:31.417Z,4.72
2022-09-12T07:43:59.541Z,3.90
2022-09-12T07:46:27.136Z,5.07
2022-09-12T07:48:55.341Z,4.60
2022-09-12T07:51:23.215Z,4.95
2022-09-12T07:53:50.402Z,5.35
2022-09-12T07:56:18.116Z,5.10
2022-09-12T07:58:44.773Z,4.80
2022-09-12T08:01:17.630Z,4.95
2022-09-12T08:03:47.188Z,5.10
2022-09-12T08:06:16.509Z,5.32
2022-09-12T08:08:43.488Z,6.10
2022-09-12T08:11:12.889Z,4.95
2022-09-12T08:13:40.984Z,5.00
2022-09-12T08:16:13.462Z,4.78
2022-09-12T08:18:40.877Z,5.00
2022-09-12T08:21:11.948Z,5.50
2022-09-12T08:23:38.551Z,6.15
2022-09-12T08:26:06.567Z,6.15
2022-09-12T08:28:35.087Z,5.57
2022-09-12T08:31:02.529Z,5.88
2022-09-12T08:33:33.486Z,5.75
2022-09-12T08:36:04.688Z,5.15
2022-09-12T08:38:31.799Z,5.93
2022-09-12T08:41:08.964Z,6.05
2022-09-12T08:43:57.544Z,5.72
2022-09-12T08:46:51.625Z,5.05
2022-09-12T08:49:40.851Z,5.07
2022-09-12T08:52:15.454Z,6.05
2022-09-12T08:54:44.873Z,5.70
2022-09-12T08:57:14.292Z,5.60
2022-09-12T08:59:45.381Z,6.40
2022-09-12T09:02:45.788Z,6.22
2022-09-12T09:05:23.727Z,5.75
2022-09-12T09:08:15.869Z,5.63
2022-09-12T09:10:59.608Z,5.38
2022-09-12T09:14:17.485Z,5.65
2022-09-12T09:16:48.064Z,7.18
2022-09-12T09:19:34.018Z,5.45
2022-09-12T09:22:05.813Z,5.45
2022-09-12T09:24:44.609Z,5.45
2022-09-12T09:27:37.294Z,5.68
2022-09-12T09:30:19.772Z,5.15
2022-09-12T09:32:51.002Z,4.85
2022-09-12T09:35:41.115Z,5.25
2022-09-12T09:38:24.588Z,4.80
2022-09-12T09:41:09.845Z,4.50
2022-09-12T09:43:37.988Z,4.22
2022-09-12T09:46:05.392Z,5.05
2022-09-12T09:48:35.720Z,4.90
2022-09-12T09:51:06.947Z,4.00
2022-09-12T09:53:50.487Z,4.65
2022-09-12T09:56:33.161Z,4.05
2022-09-12T09:59:26.085Z,4.13
2022-09-12T10:02:03.883Z,4.38
2022-09-12T10:04:41.839Z,4.25
2022-09-12T10:07:19.225Z,3.83
2022-09-12T10:10:14.397Z,3.72
2022-09-12T10:12:41.426Z,4.03
2022-09-12T10:15:26.575Z,3.55
2022-09-12T10:17:55.392Z,3.47
2022-09-12T10:20:34.158Z,3.05
2022-09-12T10:23:03.913Z,3.42
2022-09-12T10:25:30.841Z,2.88
2022-09-12T10:28:00.418Z,3.17
2022-09-12T10:30:28.664Z,2.97
2022-09-12T10:33:06.864Z,3.75
2022-09-12T10:35:45.360Z,3.25
2022-09-12T10:38:32.107Z,3.47
2022-09-12T10:41:03.443Z,3.17
2022-09-12T10:43:33.206Z,2.88
2022-09-12T10:46:19.766Z,2.90
2022-09-12T10:48:48.088Z,3.22
2022-09-12T10:51:23.828Z,2.65
2022-09-12T10:54:02.444Z,2.50
2022-09-12T10:56:33.503Z,2.17
2022-09-12T10:59:20.382Z,2.90
2022-09-12T11:01:52.495Z,2.35
2022-09-12T11:04:46.299Z,2.30
2022-09-12T11:07:46.766Z,2.40
2022-09-12T11:10:41.446Z,2.03
2022-09-12T11:13:23.585Z,2.25
2022-09-12T11:16:28.659Z,2.08
2022-09-12T11:19:21.974Z,2.40
2022-09-12T11:22:07.429Z,2.47
2022-09-12T11:25:03.852Z,1.67
2022-09-12T11:27:52.273Z,1.85
2022-09-12T11:30:18.859Z,1.80
2022-09-12T11:33:09.192Z,2.90
2022-09-12T11:35:45.340Z,1.50
2022-09-12T11:38:30.759Z,1.52
2022-09-12T11:41:09.228Z,1.38
2022-09-12T11:43:44.311Z,1.55
2022-09-12T11:48:47.016Z,1.60
2022-09-12T11:51:28.719Z,1.50
2022-09-12T11:54:24.919Z,1.00
2022-09-12T11:59:42.965Z,1.23
2022-09-12T12:02:30.781Z,1.40
2022-09-12T12:05:09.740Z,1.30
2022-09-12T12:07:54.679Z,1.60
2022-09-12T12:10:26.199Z,1.20
2022-09-12T12:12:56.363Z,1.52
2022-09-12T12:15:25.685Z,1.20
2022-09-12T12:18:08.273Z,1.33
2022-09-12T12:20:36.037Z,1.58
2022-09-12T12:23:03.937Z,2.10
2022-09-12T12:26:00.690Z,1.27
2022-09-12T12:28:42.600Z,1.25
2022-09-12T12:31:10.700Z,1.13
2022-09-12T12:33:37.299Z,1.48
2022-09-12T12:36:10.623Z,1.17
2022-09-12T12:38:39.330Z,1.45
2022-09-12T12:41:28.840Z,1.20
2022-09-12T12:43:57.505Z,1.55
2022-09-12T12:46:26.792Z,1.50
2022-09-12T12:49:27.494Z,1.40
2022-09-12T12:51:53.937Z,1.40
2022-09-12T12:54:48.572Z,1.52
2022-09-12T12:57:35.985Z,1.30
2022-09-12T13:00:09.269Z,1.45
2022-09-12T13:02:42.284Z,1.13
2022-09-12T13:05:24.429Z,1.20
2022-09-12T13:08:11.872Z,1.20
2022-09-12T13:10:38.849Z,1.10
2022-09-12T13:13:08.564Z,1.20
2022-09-12T13:15:38.158Z,1.20
2022-09-12T13:18:13.564Z,1.30
2022-09-12T13:20:59.763Z,1.58
2022-09-12T13:23:31.381Z,1.33
2022-09-12T13:26:00.508Z,1.17
2022-09-12T13:28:28.611Z,1.30
2022-09-12T13:31:03.744Z,1.20
2022-09-12T13:33:45.857Z,1.15
2022-09-12T13:36:31.352Z,1.30
2022-09-12T13:39:24.911Z,1.08
2022-09-12T13:42:16.428Z,1.20
2022-09-12T13:44:47.150Z,1.10
2022-09-12T13:47:18.728Z,1.30
2022-09-12T13:49:46.999Z,1.38
2022-09-12T13:52:21.245Z,1.15
2022-09-12T13:54:52.236Z,1.27
2022-09-12T13:57:29.644Z,1.15
2022-09-12T13:59:58.076Z,1.25
2022-09-12T14:02:28.734Z,1.10
2022-09-12T14:06:20.543Z,1.20
2022-09-12T14:08:48.159Z,1.50
2022-09-12T14:11:27.121Z,1.45
2022-09-12T14:13:56.248Z,1.23
2022-09-12T14:16:25.881Z,1.30
2022-09-12T14:18:52.870Z,1.20
2022-09-12T14:21:30.233Z,1.63
2022-09-12T14:23:57.964Z,1.70
2022-09-12T14:26:28.215Z,2.25
2022-09-12T14:28:55.071Z,1.63
2022-09-12T14:31:31.188Z,1.35
2022-09-12T14:34:18.818Z,1.10
2022-09-12T14:36:50.722Z,1.23
2022-09-12T14:39:31.931Z,1.35
2022-09-12T14:42:20.768Z,1.20
2022-09-12T14:45:05.867Z,1.60
2022-09-12T14:47:40.811Z,1.15
2022-09-12T14:50:20.575Z,1.20
2022-09-12T14:53:04.694Z,1.17
2022-09-12T14:55:33.723Z,1.08
2022-09-12T14:58:15.463Z,1.13
2022-09-12T15:00:57.991Z,1.30
2022-09-12T15:03:36.786Z,1.38
2022-09-12T15:06:05.715Z,1.40
2022-09-12T15:08:32.366Z,1.27
2022-09-12T15:11:00.118Z,1.10
2022-09-12T15:13:28.683Z,1.45
2022-09-12T15:15:57.571Z,1.20
2022-09-12T15:18:26.324Z,1.42
2022-09-12T15:20:57.198Z,1.13
2022-09-12T15:23:32.808Z,1.55
2022-09-12T15:26:00.309Z,1.08
2022-09-12T15:28:27.821Z,1.50
2022-09-12T15:30:56.464Z,1.17
2022-09-12T15:33:25.223Z,1.10
2022-09-12T15:35:52.955Z,1.38
2022-09-12T15:38:25.620Z,1.42
2022-09-12T15:40:53.850Z,1.10
2022-09-12T15:43:22.325Z,1.10
2022-09-12T15:45:52.243Z,1.75
2022-09-12T15:48:20.496Z,1.30
2022-09-12T15:50:47.330Z,1.55
2022-09-12T15:53:16.242Z,1.45
2022-09-12T15:55:43.636Z,1.23
2022-09-12T15:58:10.617Z,1.30
2022-09-12T16:00:37.268Z,1.20
2022-09-12T16:03:03.985Z,1.25
2022-09-12T16:05:30.576Z,1.30
2022-09-12T16:07:57.104Z,1.38
2022-09-12T16:10:27.373Z,1.17
2022-09-12T16:12:53.960Z,1.05
2022-09-12T16:15:25.200Z,1.08
2022-09-12T16:17:52.145Z,1.45
2022-09-12T16:20:19.470Z,1.30
2022-09-12T16:22:46.334Z,0.93
2022-09-12T16:25:12.936Z,1.20
2022-09-12T16:27:39.835Z,1.45
2022-09-12T16:30:07.757Z,1.10
2022-09-12T16:32:35.063Z,1.17
2022-09-12T16:35:01.864Z,1.20
2022-09-12T16:37:28.970Z,0.98
2022-09-12T16:39:55.585Z,1.08
2022-09-12T16:42:22.390Z,1.30
2022-09-12T16:44:48.897Z,1.27
2022-09-12T16:47:15.440Z,0.80
2022-09-12T16:49:42.149Z,1.20
2022-09-12T16:52:10.113Z,1.33
2022-09-12T16:54:36.693Z,1.20
2022-09-12T16:57:05.133Z,0.98
2022-09-12T16:59:32.404Z,1.13
2022-09-12T17:01:59.201Z,0.80
2022-09-12T17:04:25.839Z,0.70
2022-09-12T17:06:52.375Z,1.38
2022-09-12T17:09:19.181Z,1.15
2022-09-12T17:11:47.677Z,1.02
2022-09-12T17:14:14.354Z,0.80
2022-09-12T17:16:46.937Z,0.85
2022-09-12T17:19:18.019Z,1.10
2022-09-12T17:21:47.484Z,1.10
2022-09-12T17:24:14.997Z,1.20
2022-09-12T17:26:41.724Z,1.10
2022-09-12T17:29:08.271Z,1.13
2022-09-12T17:31:35.084Z,1.23
2022-09-12T17:34:02.287Z,1.35
2022-09-12T17:36:32.549Z,1.02
2022-09-12T17:38:59.817Z,1.17
2022-09-12T17:41:30.778Z,1.15
2022-09-12T17:43:58.864Z,0.90
2022-09-12T17:46:29.823Z,1.40
2022-09-12T17:48:58.231Z,1.38
2022-09-12T17:51:26.160Z,1.20
2022-09-12T17:54:11.587Z,1.15
2022-09-12T17:56:39.517Z,1.17
2022-09-12T17:59:07.542Z,1.35
2022-09-12T18:01:53.369Z,1.30
2022-09-12T18:06:50.069Z,1.42
2022-09-12T18:09:20.221Z,1.77
2022-09-12T18:11:48.178Z,1.42
2022-09-12T18:14:15.054Z,1.60
2022-09-12T18:16:42.597Z,1.70
2022-09-12T18:19:10.962Z,1.42
2022-09-12T18:21:38.481Z,1.70
2022-09-12T18:24:06.029Z,2.15
2022-09-12T18:26:33.200Z,1.77
2022-09-12T18:28:59.728Z,1.88
2022-09-12T18:31:29.015Z,1.90
2022-09-12T18:33:56.927Z,1.55
2022-09-12T18:36:23.790Z,2.00
2022-09-12T18:38:50.359Z,1.65
2022-09-12T18:41:20.933Z,1.88
2022-09-12T18:43:48.530Z,2.00
2022-09-12T18:46:18.184Z,1.85
2022-09-12T18:48:45.859Z,1.70
2022-09-12T18:51:18.154Z,1.88
2022-09-12T18:53:50.956Z,2.28
2022-09-12T18:56:17.756Z,1.90
2022-09-12T18:58:44.643Z,1.70
2022-09-12T19:01:31.927Z,2.20
2022-09-12T19:04:00.816Z,1.73
2022-09-12T19:06:29.517Z,2.15
2022-09-12T19:08:57.676Z,1.80
2022-09-12T19:11:26.223Z,1.95
2022-09-12T19:13:54.154Z,1.98
2022-09-12T19:16:23.999Z,1.50
2022-09-12T19:18:52.297Z,1.70
2022-09-12T19:21:22.313Z,1.83
2022-09-12T19:23:49.480Z,2.08
2022-09-12T19:26:17.743Z,2.28
2022-09-12T19:28:45.457Z,2.13
2022-09-12T19:31:15.887Z,1.85
2022-09-12T19:33:42.755Z,1.88
2022-09-12T19:36:33.643Z,1.90
2022-09-12T19:38:59.870Z,2.08
2022-09-12T19:41:26.714Z,1.90
2022-09-12T19:43:55.199Z,1.80
2022-09-12T19:46:24.092Z,2.20
2022-09-12T19:48:52.453Z,1.70
2022-09-12T19:51:20.587Z,1.52
2022-09-12T19:53:47.680Z,2.00
2022-09-12T19:56:14.858Z,2.20
2022-09-12T19:58:44.478Z,2.08
2022-09-12T20:01:18.874Z,1.73
2022-09-12T20:03:46.774Z,1.70
2022-09-12T20:06:17.032Z,1.65
2022-09-12T20:08:44.299Z,1.70
2022-09-12T20:11:14.168Z,1.90
2022-09-12T20:13:41.267Z,1.85
2022-09-12T20:16:19.046Z,1.98
2022-09-12T20:18:52.184Z,1.77
2022-09-12T20:21:20.508Z,2.13
2022-09-12T20:23:47.221Z,1.88
2022-09-12T20:26:13.791Z,2.17
2022-09-12T20:28:41.594Z,1.58
2022-09-12T20:31:12.303Z,1.80
2022-09-12T20:33:39.428Z,2.00
2022-09-12T20:36:18.695Z,2.10
2022-09-12T20:38:50.814Z,1.80
2022-09-12T20:41:18.880Z,1.70
2022-09-12T20:43:48.931Z,1.70
2022-09-12T20:46:19.731Z,2.17
2022-09-12T20:48:48.047Z,2.00
2022-09-12T20:51:14.597Z,1.65
2022-09-12T20:53:41.566Z,1.73
2022-09-12T20:56:08.435Z,2.17
2022-09-12T20:58:36.326Z,1.95
2022-09-12T21:01:08.937Z,2.08
2022-09-12T21:03:39.670Z,1.50
2022-09-12T21:06:08.183Z,1.77
2022-09-12T21:08:35.619Z,2.17
2022-09-12T21:11:02.660Z,2.13
2022-09-12T21:13:29.380Z,1.77
2022-09-12T21:16:03.195Z,2.45
2022-09-12T21:18:31.464Z,2.03
2022-09-12T21:20:58.168Z,1.80
2022-09-12T21:23:25.984Z,1.52
2022-09-12T21:25:52.948Z,1.95
2022-09-12T21:28:20.525Z,2.05
2022-09-12T21:30:51.262Z,1.90
2022-09-12T21:33:20.271Z,1.50
2022-09-12T21:35:47.762Z,2.00
2022-09-12T21:38:15.393Z,1.90
2022-09-12T21:40:42.041Z,2.40
2022-09-12T21:43:12.553Z,2.10
2022-09-12T21:45:40.313Z,2.10
2022-09-12T21:48:06.898Z,2.58
2022-09-12T21:50:33.538Z,2.22
2022-09-12T21:53:00.276Z,2.00
2022-09-12T21:55:27.351Z,2.60
2022-09-12T21:57:54.919Z,2.22
2022-09-12T22:00:21.945Z,1.73
2022-09-12T22:02:48.856Z,2.25
2022-09-12T22:05:15.616Z,2.20
2022-09-12T22:07:42.182Z,2.10
2022-09-12T22:10:09.236Z,1.80
2022-09-12T22:12:35.792Z,1.80
2022-09-12T22:15:17.466Z,2.25
2022-09-12T22:17:49.219Z,2.03
2022-09-12T22:20:15.851Z,1.95
2022-09-12T22:23:01.214Z,1.60
2022-09-12T22:25:27.972Z,1.98
2022-09-12T22:27:54.914Z,1.70
2022-09-12T22:30:22.272Z,2.00
2022-09-12T22:32:50.369Z,1.98
2022-09-12T22:35:18.378Z,2.20
2022-09-12T22:37:46.741Z,1.80
2022-09-12T22:40:13.687Z,2.30
2022-09-12T22:42:40.370Z,1.95
2022-09-12T22:45:07.739Z,2.13
2022-09-12T22:47:34.368Z,1.80
2022-09-12T22:50:01.156Z,1.52
2022-09-12T22:52:27.749Z,1.73
2022-09-12T22:54:54.459Z,2.10
2022-09-12T22:57:20.955Z,2.15
2022-09-12T22:59:47.707Z,1.70
2022-09-12T23:02:14.289Z,1.85
2022-09-12T23:04:40.921Z,1.80
2022-09-12T23:07:07.518Z,1.33
2022-09-12T23:09:35.576Z,1.60
2022-09-12T23:12:02.728Z,1.40
2022-09-12T23:14:29.344Z,2.33
2022-09-12T23:16:56.046Z,1.80
2022-09-12T23:19:22.825Z,1.88
2022-09-12T23:21:49.759Z,1.75
2022-09-12T23:24:16.389Z,1.90
2022-09-12T23:26:43.128Z,2.38
2022-09-12T23:29:09.763Z,1.85
2022-09-12T23:31:36.542Z,2.05
2022-09-12T23:34:05.936Z,1.85
2022-09-12T23:36:33.334Z,1.80
2022-09-12T23:38:59.890Z,2.65
2022-09-12T23:41:26.885Z,1.92
2022-09-12T23:43:53.623Z,1.55
2022-09-12T23:46:21.179Z,1.40
2022-09-12T23:48:48.089Z,1.80
2022-09-12T23:51:14.924Z,2.00
2022-09-12T23:53:42.073Z,1.50
2022-09-12T23:56:08.675Z,1.50
2022-09-12T23:58:35.280Z,1.73
